sensor_id;sensor_type;location;lat;lon;timestamp;P1;durP1;ratioP1;P2;durP2;ratioP2
27728;SDS011;15126;42.186;24.340;2024-03-08T00:00:29;42.10;;;17.65;;
27728;SDS011;15126;42.186;24.340;2024-03-08T00:02:57;40.25;;;17.83;;
27728;SDS011;15126;42.186;24.340;2024-03-08T00:05:22;43.60;;;18.30;;
27728;SDS011;15126;42.186;24.340;2024-03-08T00:07:48;39.92;;;16.45;;
27728;SDS011;15126;42.186;24.340;2024-03-08T00:10:14;39.35;;;16.90;;
27728;SDS011;15126;42.186;24.340;2024-03-08T00:12:40;38.92;;;17.05;;
27728;SDS011;15126;42.186;24.340;2024-03-08T00:15:07;34.55;;;17.13;;
27728;SDS011;15126;42.186;24.340;2024-03-08T00:17:39;37.60;;;16.25;;
27728;SDS011;15126;42.186;24.340;2024-03-08T00:20:08;39.05;;;17.35;;
27728;SDS011;15126;42.186;24.340;2024-03-08T00:22:36;38.83;;;16.58;;
27728;SDS011;15126;42.186;24.340;2024-03-08T00:25:06;40.05;;;18.27;;
27728;SDS011;15126;42.186;24.340;2024-03-08T00:27:35;36.85;;;17.50;;
27728;SDS011;15126;42.186;24.340;2024-03-08T00:30:01;40.15;;;16.45;;
27728;SDS011;15126;42.186;24.340;2024-03-08T00:32:28;41.15;;;18.60;;
27728;SDS011;15126;42.186;24.340;2024-03-08T00:34:54;36.17;;;16.50;;
27728;SDS011;15126;42.186;24.340;2024-03-08T00:37:20;42.63;;;16.48;;
27728;SDS011;15126;42.186;24.340;2024-03-08T00:39:50;37.55;;;16.70;;
27728;SDS011;15126;42.186;24.340;2024-03-08T00:42:16;38.33;;;17.15;;
27728;SDS011;15126;42.186;24.340;2024-03-08T00:44:42;34.00;;;16.58;;
27728;SDS011;15126;42.186;24.340;2024-03-08T00:47:08;42.70;;;18.80;;
27728;SDS011;15126;42.186;24.340;2024-03-08T00:49:33;36.70;;;15.80;;
27728;SDS011;15126;42.186;24.340;2024-03-08T00:51:59;34.25;;;16.25;;
27728;SDS011;15126;42.186;24.340;2024-03-08T00:54:25;36.53;;;16.38;;
27728;SDS011;15126;42.186;24.340;2024-03-08T00:59:16;37.30;;;17.33;;
27728;SDS011;15126;42.186;24.340;2024-03-08T01:01:41;34.63;;;16.65;;
27728;SDS011;15126;42.186;24.340;2024-03-08T01:04:09;34.90;;;15.77;;
27728;SDS011;15126;42.186;24.340;2024-03-08T01:09:00;34.15;;;14.65;;
27728;SDS011;15126;42.186;24.340;2024-03-08T01:11:26;33.08;;;16.75;;
27728;SDS011;15126;42.186;24.340;2024-03-08T01:13:53;38.58;;;15.80;;
27728;SDS011;15126;42.186;24.340;2024-03-08T01:16:19;35.67;;;15.57;;
27728;SDS011;15126;42.186;24.340;2024-03-08T01:18:46;38.60;;;16.58;;
27728;SDS011;15126;42.186;24.340;2024-03-08T01:21:12;35.40;;;15.57;;
27728;SDS011;15126;42.186;24.340;2024-03-08T01:23:38;33.42;;;15.85;;
27728;SDS011;15126;42.186;24.340;2024-03-08T01:26:03;35.33;;;16.50;;
27728;SDS011;15126;42.186;24.340;2024-03-08T01:28:29;31.48;;;15.30;;
27728;SDS011;15126;42.186;24.340;2024-03-08T01:30:55;31.75;;;15.35;;
27728;SDS011;15126;42.186;24.340;2024-03-08T01:33:24;31.70;;;14.93;;
27728;SDS011;15126;42.186;24.340;2024-03-08T01:35:51;34.97;;;14.63;;
27728;SDS011;15126;42.186;24.340;2024-03-08T01:38:17;36.05;;;16.20;;
27728;SDS011;15126;42.186;24.340;2024-03-08T01:40:43;32.65;;;16.13;;
27728;SDS011;15126;42.186;24.340;2024-03-08T01:45:54;31.65;;;14.68;;
27728;SDS011;15126;42.186;24.340;2024-03-08T01:48:22;37.55;;;16.08;;
27728;SDS011;15126;42.186;24.340;2024-03-08T01:50:49;36.10;;;14.80;;
27728;SDS011;15126;42.186;24.340;2024-03-08T01:53:15;35.80;;;16.30;;
27728;SDS011;15126;42.186;24.340;2024-03-08T01:55:44;30.13;;;14.70;;
27728;SDS011;15126;42.186;24.340;2024-03-08T01:58:11;30.20;;;14.45;;
27728;SDS011;15126;42.186;24.340;2024-03-08T02:00:41;28.85;;;15.43;;
27728;SDS011;15126;42.186;24.340;2024-03-08T02:03:08;31.05;;;14.65;;
27728;SDS011;15126;42.186;24.340;2024-03-08T02:05:34;38.05;;;17.00;;
27728;SDS011;15126;42.186;24.340;2024-03-08T02:08:01;30.67;;;15.32;;
27728;SDS011;15126;42.186;24.340;2024-03-08T02:10:32;29.33;;;14.80;;
27728;SDS011;15126;42.186;24.340;2024-03-08T02:12:59;37.67;;;17.23;;
27728;SDS011;15126;42.186;24.340;2024-03-08T02:15:26;36.35;;;16.75;;
27728;SDS011;15126;42.186;24.340;2024-03-08T02:17:52;41.92;;;17.95;;
27728;SDS011;15126;42.186;24.340;2024-03-08T02:20:18;36.40;;;16.38;;
27728;SDS011;15126;42.186;24.340;2024-03-08T02:22:44;36.33;;;16.23;;
27728;SDS011;15126;42.186;24.340;2024-03-08T02:27:36;39.95;;;15.15;;
27728;SDS011;15126;42.186;24.340;2024-03-08T02:30:01;38.30;;;15.50;;
27728;SDS011;15126;42.186;24.340;2024-03-08T02:32:27;39.00;;;17.00;;
27728;SDS011;15126;42.186;24.340;2024-03-08T02:34:56;37.85;;;17.17;;
27728;SDS011;15126;42.186;24.340;2024-03-08T02:37:22;43.53;;;17.42;;
27728;SDS011;15126;42.186;24.340;2024-03-08T02:39:55;41.33;;;17.75;;
27728;SDS011;15126;42.186;24.340;2024-03-08T02:42:20;35.47;;;17.40;;
27728;SDS011;15126;42.186;24.340;2024-03-08T02:44:46;43.25;;;18.17;;
27728;SDS011;15126;42.186;24.340;2024-03-08T02:47:11;45.22;;;18.63;;
27728;SDS011;15126;42.186;24.340;2024-03-08T02:49:37;35.85;;;16.95;;
27728;SDS011;15126;42.186;24.340;2024-03-08T02:52:03;41.38;;;18.10;;
27728;SDS011;15126;42.186;24.340;2024-03-08T02:54:30;38.47;;;19.50;;
27728;SDS011;15126;42.186;24.340;2024-03-08T02:56:55;39.30;;;16.17;;
27728;SDS011;15126;42.186;24.340;2024-03-08T02:59:21;39.28;;;15.82;;
27728;SDS011;15126;42.186;24.340;2024-03-08T03:01:47;38.53;;;16.88;;
27728;SDS011;15126;42.186;24.340;2024-03-08T03:04:12;38.35;;;16.40;;
27728;SDS011;15126;42.186;24.340;2024-03-08T03:06:38;35.63;;;15.88;;
27728;SDS011;15126;42.186;24.340;2024-03-08T03:09:03;37.38;;;17.15;;
27728;SDS011;15126;42.186;24.340;2024-03-08T03:11:31;33.28;;;15.90;;
27728;SDS011;15126;42.186;24.340;2024-03-08T03:13:57;35.70;;;16.23;;
27728;SDS011;15126;42.186;24.340;2024-03-08T03:16:22;32.58;;;15.40;;
27728;SDS011;15126;42.186;24.340;2024-03-08T03:18:47;32.78;;;17.02;;
27728;SDS011;15126;42.186;24.340;2024-03-08T03:21:14;30.30;;;15.57;;
27728;SDS011;15126;42.186;24.340;2024-03-08T03:23:39;33.63;;;16.60;;
27728;SDS011;15126;42.186;24.340;2024-03-08T03:26:06;35.72;;;16.17;;
27728;SDS011;15126;42.186;24.340;2024-03-08T03:28:37;32.20;;;15.73;;
27728;SDS011;15126;42.186;24.340;2024-03-08T03:31:06;33.42;;;16.17;;
27728;SDS011;15126;42.186;24.340;2024-03-08T03:33:32;36.53;;;15.77;;
27728;SDS011;15126;42.186;24.340;2024-03-08T03:35:59;34.28;;;16.55;;
27728;SDS011;15126;42.186;24.340;2024-03-08T03:38:26;36.35;;;16.75;;
27728;SDS011;15126;42.186;24.340;2024-03-08T03:40:53;38.90;;;17.58;;
27728;SDS011;15126;42.186;24.340;2024-03-08T03:43:22;41.95;;;18.08;;
27728;SDS011;15126;42.186;24.340;2024-03-08T03:45:47;51.22;;;20.27;;
27728;SDS011;15126;42.186;24.340;2024-03-08T03:48:13;48.78;;;20.77;;
27728;SDS011;15126;42.186;24.340;2024-03-08T03:50:39;48.50;;;18.60;;
27728;SDS011;15126;42.186;24.340;2024-03-08T03:53:04;58.67;;;19.75;;
27728;SDS011;15126;42.186;24.340;2024-03-08T03:55:33;47.85;;;19.48;;
27728;SDS011;15126;42.186;24.340;2024-03-08T03:57:58;61.05;;;20.92;;
27728;SDS011;15126;42.186;24.340;2024-03-08T04:00:26;47.38;;;19.35;;
27728;SDS011;15126;42.186;24.340;2024-03-08T04:02:52;54.67;;;20.88;;
27728;SDS011;15126;42.186;24.340;2024-03-08T04:05:18;46.40;;;18.70;;
27728;SDS011;15126;42.186;24.340;2024-03-08T04:07:43;42.55;;;17.70;;
27728;SDS011;15126;42.186;24.340;2024-03-08T04:10:11;49.15;;;17.88;;
27728;SDS011;15126;42.186;24.340;2024-03-08T04:12:37;38.95;;;16.67;;
27728;SDS011;15126;42.186;24.340;2024-03-08T04:15:03;35.33;;;16.15;;
27728;SDS011;15126;42.186;24.340;2024-03-08T04:17:32;33.45;;;16.35;;
27728;SDS011;15126;42.186;24.340;2024-03-08T04:19:58;36.83;;;15.57;;
27728;SDS011;15126;42.186;24.340;2024-03-08T04:22:23;37.55;;;15.52;;
27728;SDS011;15126;42.186;24.340;2024-03-08T04:24:49;32.75;;;14.70;;
27728;SDS011;15126;42.186;24.340;2024-03-08T04:27:14;37.70;;;14.80;;
27728;SDS011;15126;42.186;24.340;2024-03-08T04:29:39;32.92;;;15.98;;
27728;SDS011;15126;42.186;24.340;2024-03-08T04:32:07;30.95;;;15.18;;
27728;SDS011;15126;42.186;24.340;2024-03-08T04:34:33;34.70;;;15.77;;
27728;SDS011;15126;42.186;24.340;2024-03-08T04:37:02;28.00;;;14.60;;
27728;SDS011;15126;42.186;24.340;2024-03-08T04:39:29;29.17;;;13.55;;
27728;SDS011;15126;42.186;24.340;2024-03-08T04:41:57;29.85;;;14.57;;
27728;SDS011;15126;42.186;24.340;2024-03-08T04:44:26;29.17;;;15.23;;
27728;SDS011;15126;42.186;24.340;2024-03-08T04:46:51;27.58;;;14.75;;
27728;SDS011;15126;42.186;24.340;2024-03-08T04:49:17;29.70;;;14.90;;
27728;SDS011;15126;42.186;24.340;2024-03-08T04:51:48;29.48;;;14.00;;
27728;SDS011;15126;42.186;24.340;2024-03-08T04:54:13;26.00;;;14.10;;
27728;SDS011;15126;42.186;24.340;2024-03-08T04:56:39;30.80;;;13.82;;
27728;SDS011;15126;42.186;24.340;2024-03-08T04:59:04;31.85;;;15.63;;
27728;SDS011;15126;42.186;24.340;2024-03-08T05:01:33;29.00;;;14.73;;
27728;SDS011;15126;42.186;24.340;2024-03-08T05:03:59;35.60;;;15.40;;
27728;SDS011;15126;42.186;24.340;2024-03-08T05:06:24;32.78;;;15.80;;
27728;SDS011;15126;42.186;24.340;2024-03-08T05:08:50;33.03;;;15.60;;
27728;SDS011;15126;42.186;24.340;2024-03-08T05:11:15;35.90;;;15.85;;
27728;SDS011;15126;42.186;24.340;2024-03-08T05:13:41;32.80;;;16.80;;
27728;SDS011;15126;42.186;24.340;2024-03-08T05:16:06;33.08;;;14.90;;
27728;SDS011;15126;42.186;24.340;2024-03-08T05:18:35;34.75;;;15.90;;
27728;SDS011;15126;42.186;24.340;2024-03-08T05:21:01;37.30;;;15.77;;
27728;SDS011;15126;42.186;24.340;2024-03-08T05:23:29;30.23;;;14.52;;
27728;SDS011;15126;42.186;24.340;2024-03-08T05:25:55;34.83;;;16.05;;
27728;SDS011;15126;42.186;24.340;2024-03-08T05:28:21;39.28;;;17.55;;
27728;SDS011;15126;42.186;24.340;2024-03-08T05:30:47;31.10;;;15.52;;
27728;SDS011;15126;42.186;24.340;2024-03-08T05:33:12;38.97;;;15.30;;
27728;SDS011;15126;42.186;24.340;2024-03-08T05:35:39;33.17;;;16.05;;
27728;SDS011;15126;42.186;24.340;2024-03-08T05:38:05;33.65;;;15.27;;
27728;SDS011;15126;42.186;24.340;2024-03-08T05:40:32;29.83;;;14.20;;
27728;SDS011;15126;42.186;24.340;2024-03-08T05:42:58;28.92;;;14.27;;
27728;SDS011;15126;42.186;24.340;2024-03-08T05:45:26;31.05;;;14.98;;
27728;SDS011;15126;42.186;24.340;2024-03-08T05:47:52;34.38;;;15.27;;
27728;SDS011;15126;42.186;24.340;2024-03-08T05:50:18;33.38;;;15.38;;
27728;SDS011;15126;42.186;24.340;2024-03-08T05:52:44;33.78;;;15.68;;
27728;SDS011;15126;42.186;24.340;2024-03-08T05:55:10;28.42;;;14.18;;
27728;SDS011;15126;42.186;24.340;2024-03-08T05:57:36;33.05;;;14.93;;
27728;SDS011;15126;42.186;24.340;2024-03-08T06:00:05;30.70;;;14.18;;
27728;SDS011;15126;42.186;24.340;2024-03-08T06:02:31;25.92;;;13.00;;
27728;SDS011;15126;42.186;24.340;2024-03-08T06:04:56;27.40;;;13.90;;
27728;SDS011;15126;42.186;24.340;2024-03-08T06:07:22;34.67;;;18.80;;
27728;SDS011;15126;42.186;24.340;2024-03-08T06:09:47;70.03;;;33.95;;
27728;SDS011;15126;42.186;24.340;2024-03-08T06:12:13;36.45;;;16.90;;
27728;SDS011;15126;42.186;24.340;2024-03-08T06:14:44;31.65;;;15.35;;
27728;SDS011;15126;42.186;24.340;2024-03-08T06:17:10;31.38;;;15.07;;
27728;SDS011;15126;42.186;24.340;2024-03-08T06:19:36;32.00;;;16.23;;
27728;SDS011;15126;42.186;24.340;2024-03-08T06:22:02;32.45;;;16.08;;
27728;SDS011;15126;42.186;24.340;2024-03-08T06:24:30;28.50;;;15.30;;
27728;SDS011;15126;42.186;24.340;2024-03-08T06:26:56;33.03;;;15.32;;
27728;SDS011;15126;42.186;24.340;2024-03-08T06:29:22;31.05;;;13.52;;
27728;SDS011;15126;42.186;24.340;2024-03-08T06:31:51;29.95;;;13.48;;
27728;SDS011;15126;42.186;24.340;2024-03-08T06:34:19;32.33;;;13.93;;
27728;SDS011;15126;42.186;24.340;2024-03-08T06:36:44;32.90;;;14.88;;
27728;SDS011;15126;42.186;24.340;2024-03-08T06:39:10;32.58;;;15.68;;
27728;SDS011;15126;42.186;24.340;2024-03-08T06:41:36;26.80;;;13.73;;
27728;SDS011;15126;42.186;24.340;2024-03-08T06:44:02;31.98;;;14.88;;
27728;SDS011;15126;42.186;24.340;2024-03-08T06:46:27;34.90;;;17.48;;
27728;SDS011;15126;42.186;24.340;2024-03-08T06:48:53;28.38;;;15.43;;
27728;SDS011;15126;42.186;24.340;2024-03-08T06:51:19;30.20;;;14.60;;
27728;SDS011;15126;42.186;24.340;2024-03-08T06:53:45;31.25;;;14.43;;
27728;SDS011;15126;42.186;24.340;2024-03-08T06:56:10;30.60;;;13.75;;
27728;SDS011;15126;42.186;24.340;2024-03-08T06:58:36;30.13;;;12.98;;
27728;SDS011;15126;42.186;24.340;2024-03-08T07:01:01;30.75;;;13.82;;
27728;SDS011;15126;42.186;24.340;2024-03-08T07:03:29;27.92;;;13.70;;
27728;SDS011;15126;42.186;24.340;2024-03-08T07:05:55;27.92;;;13.77;;
27728;SDS011;15126;42.186;24.340;2024-03-08T07:08:23;29.10;;;13.38;;
27728;SDS011;15126;42.186;24.340;2024-03-08T07:10:48;29.05;;;13.80;;
27728;SDS011;15126;42.186;24.340;2024-03-08T07:13:14;26.45;;;12.88;;
27728;SDS011;15126;42.186;24.340;2024-03-08T07:15:40;27.27;;;12.05;;
27728;SDS011;15126;42.186;24.340;2024-03-08T07:18:05;25.98;;;13.15;;
27728;SDS011;15126;42.186;24.340;2024-03-08T07:20:34;26.40;;;11.90;;
27728;SDS011;15126;42.186;24.340;2024-03-08T07:23:00;28.88;;;12.90;;
27728;SDS011;15126;42.186;24.340;2024-03-08T07:25:25;22.13;;;11.60;;
27728;SDS011;15126;42.186;24.340;2024-03-08T07:27:54;27.20;;;12.57;;
27728;SDS011;15126;42.186;24.340;2024-03-08T07:30:21;25.55;;;12.27;;
27728;SDS011;15126;42.186;24.340;2024-03-08T07:33:06;29.05;;;13.50;;
27728;SDS011;15126;42.186;24.340;2024-03-08T07:35:38;24.25;;;12.05;;
27728;SDS011;15126;42.186;24.340;2024-03-08T07:38:05;21.58;;;11.40;;
27728;SDS011;15126;42.186;24.340;2024-03-08T07:40:38;21.92;;;11.30;;
27728;SDS011;15126;42.186;24.340;2024-03-08T07:43:08;22.33;;;10.35;;
27728;SDS011;15126;42.186;24.340;2024-03-08T07:45:35;25.00;;;12.18;;
27728;SDS011;15126;42.186;24.340;2024-03-08T07:48:01;20.95;;;11.30;;
27728;SDS011;15126;42.186;24.340;2024-03-08T07:50:28;22.30;;;11.48;;
27728;SDS011;15126;42.186;24.340;2024-03-08T07:52:54;26.38;;;13.00;;
27728;SDS011;15126;42.186;24.340;2024-03-08T07:55:19;24.55;;;11.40;;
27728;SDS011;15126;42.186;24.340;2024-03-08T07:57:45;25.13;;;11.50;;
27728;SDS011;15126;42.186;24.340;2024-03-08T08:00:12;23.38;;;11.68;;
27728;SDS011;15126;42.186;24.340;2024-03-08T08:02:43;26.92;;;12.50;;
27728;SDS011;15126;42.186;24.340;2024-03-08T08:05:10;25.45;;;13.15;;
27728;SDS011;15126;42.186;24.340;2024-03-08T08:07:36;22.63;;;12.02;;
27728;SDS011;15126;42.186;24.340;2024-03-08T08:10:01;23.30;;;12.25;;
27728;SDS011;15126;42.186;24.340;2024-03-08T08:12:27;27.42;;;13.77;;
27728;SDS011;15126;42.186;24.340;2024-03-08T08:14:54;25.58;;;12.35;;
27728;SDS011;15126;42.186;24.340;2024-03-08T08:17:19;27.13;;;12.63;;
27728;SDS011;15126;42.186;24.340;2024-03-08T08:19:45;27.55;;;13.45;;
27728;SDS011;15126;42.186;24.340;2024-03-08T08:22:11;26.08;;;12.57;;
27728;SDS011;15126;42.186;24.340;2024-03-08T08:24:37;28.42;;;14.18;;
27728;SDS011;15126;42.186;24.340;2024-03-08T08:27:03;27.75;;;12.98;;
27728;SDS011;15126;42.186;24.340;2024-03-08T08:29:29;28.88;;;13.13;;
27728;SDS011;15126;42.186;24.340;2024-03-08T08:31:57;28.25;;;11.93;;
27728;SDS011;15126;42.186;24.340;2024-03-08T08:34:24;29.25;;;13.60;;
27728;SDS011;15126;42.186;24.340;2024-03-08T08:36:53;27.15;;;13.55;;
27728;SDS011;15126;42.186;24.340;2024-03-08T08:39:19;23.98;;;12.48;;
27728;SDS011;15126;42.186;24.340;2024-03-08T08:41:47;20.02;;;10.43;;
27728;SDS011;15126;42.186;24.340;2024-03-08T08:44:13;24.13;;;11.38;;
27728;SDS011;15126;42.186;24.340;2024-03-08T08:46:40;22.27;;;12.32;;
27728;SDS011;15126;42.186;24.340;2024-03-08T08:49:05;29.30;;;13.75;;
27728;SDS011;15126;42.186;24.340;2024-03-08T08:51:39;25.17;;;13.13;;
27728;SDS011;15126;42.186;24.340;2024-03-08T08:54:05;25.15;;;12.98;;
27728;SDS011;15126;42.186;24.340;2024-03-08T08:56:34;25.35;;;12.70;;
27728;SDS011;15126;42.186;24.340;2024-03-08T08:59:00;27.52;;;12.75;;
27728;SDS011;15126;42.186;24.340;2024-03-08T09:01:40;25.58;;;11.80;;
27728;SDS011;15126;42.186;24.340;2024-03-08T09:04:12;21.40;;;10.50;;
27728;SDS011;15126;42.186;24.340;2024-03-08T09:06:38;22.75;;;11.30;;
27728;SDS011;15126;42.186;24.340;2024-03-08T09:09:06;21.75;;;10.32;;
27728;SDS011;15126;42.186;24.340;2024-03-08T09:11:34;16.75;;;9.20;;
27728;SDS011;15126;42.186;24.340;2024-03-08T09:14:00;22.83;;;11.00;;
27728;SDS011;15126;42.186;24.340;2024-03-08T09:16:27;23.50;;;11.05;;
27728;SDS011;15126;42.186;24.340;2024-03-08T09:18:52;20.98;;;10.35;;
27728;SDS011;15126;42.186;24.340;2024-03-08T09:21:18;17.92;;;9.40;;
27728;SDS011;15126;42.186;24.340;2024-03-08T09:26:10;18.20;;;9.30;;
27728;SDS011;15126;42.186;24.340;2024-03-08T09:28:38;19.52;;;8.95;;
27728;SDS011;15126;42.186;24.340;2024-03-08T09:33:30;18.73;;;9.27;;
27728;SDS011;15126;42.186;24.340;2024-03-08T09:38:23;15.23;;;8.57;;
27728;SDS011;15126;42.186;24.340;2024-03-08T09:40:50;15.57;;;9.07;;
27728;SDS011;15126;42.186;24.340;2024-03-08T09:43:16;14.10;;;7.60;;
27728;SDS011;15126;42.186;24.340;2024-03-08T09:45:43;16.75;;;9.45;;
27728;SDS011;15126;42.186;24.340;2024-03-08T09:48:11;18.33;;;9.68;;
27728;SDS011;15126;42.186;24.340;2024-03-08T09:50:41;19.40;;;10.10;;
27728;SDS011;15126;42.186;24.340;2024-03-08T09:53:08;15.38;;;9.15;;
27728;SDS011;15126;42.186;24.340;2024-03-08T09:55:35;20.83;;;10.13;;
27728;SDS011;15126;42.186;24.340;2024-03-08T09:58:02;17.73;;;9.55;;
27728;SDS011;15126;42.186;24.340;2024-03-08T10:00:49;19.30;;;9.63;;
27728;SDS011;15126;42.186;24.340;2024-03-08T10:05:41;19.02;;;9.00;;
27728;SDS011;15126;42.186;24.340;2024-03-08T10:08:09;17.88;;;8.77;;
27728;SDS011;15126;42.186;24.340;2024-03-08T10:10:36;17.20;;;9.68;;
27728;SDS011;15126;42.186;24.340;2024-03-08T10:13:05;20.83;;;10.20;;
27728;SDS011;15126;42.186;24.340;2024-03-08T10:15:34;20.67;;;10.05;;
27728;SDS011;15126;42.186;24.340;2024-03-08T10:18:00;19.60;;;9.02;;
27728;SDS011;15126;42.186;24.340;2024-03-08T10:20:30;14.52;;;8.32;;
27728;SDS011;15126;42.186;24.340;2024-03-08T10:23:02;18.27;;;8.98;;
27728;SDS011;15126;42.186;24.340;2024-03-08T10:25:32;17.40;;;9.25;;
27728;SDS011;15126;42.186;24.340;2024-03-08T10:27:58;15.57;;;8.85;;
27728;SDS011;15126;42.186;24.340;2024-03-08T10:32:49;17.70;;;8.20;;
27728;SDS011;15126;42.186;24.340;2024-03-08T10:37:46;15.35;;;8.38;;
27728;SDS011;15126;42.186;24.340;2024-03-08T10:42:53;17.52;;;9.30;;
27728;SDS011;15126;42.186;24.340;2024-03-08T10:47:51;14.65;;;7.97;;
27728;SDS011;15126;42.186;24.340;2024-03-08T10:50:27;13.75;;;7.38;;
27728;SDS011;15126;42.186;24.340;2024-03-08T10:52:54;14.88;;;7.82;;
27728;SDS011;15126;42.186;24.340;2024-03-08T10:55:22;13.30;;;7.68;;
27728;SDS011;15126;42.186;24.340;2024-03-08T10:57:51;16.00;;;7.97;;
27728;SDS011;15126;42.186;24.340;2024-03-08T11:00:18;12.52;;;6.82;;
27728;SDS011;15126;42.186;24.340;2024-03-08T11:02:50;14.35;;;7.72;;
27728;SDS011;15126;42.186;24.340;2024-03-08T11:13:33;14.95;;;7.82;;
27728;SDS011;15126;42.186;24.340;2024-03-08T11:16:00;13.65;;;7.45;;
27728;SDS011;15126;42.186;24.340;2024-03-08T11:23:22;12.65;;;7.57;;
27728;SDS011;15126;42.186;24.340;2024-03-08T11:25:49;16.00;;;7.53;;
27728;SDS011;15126;42.186;24.340;2024-03-08T11:28:21;16.15;;;8.55;;
27728;SDS011;15126;42.186;24.340;2024-03-08T11:33:30;16.67;;;7.35;;
27728;SDS011;15126;42.186;24.340;2024-03-08T11:36:12;12.05;;;6.65;;
27728;SDS011;15126;42.186;24.340;2024-03-08T11:38:42;10.65;;;6.53;;
27728;SDS011;15126;42.186;24.340;2024-03-08T11:41:14;13.88;;;7.13;;
27728;SDS011;15126;42.186;24.340;2024-03-08T11:43:47;17.83;;;7.32;;
27728;SDS011;15126;42.186;24.340;2024-03-08T11:46:15;20.13;;;9.35;;
27728;SDS011;15126;42.186;24.340;2024-03-08T11:48:41;15.15;;;7.22;;
27728;SDS011;15126;42.186;24.340;2024-03-08T11:51:09;15.10;;;7.68;;
27728;SDS011;15126;42.186;24.340;2024-03-08T11:53:36;15.25;;;8.38;;
27728;SDS011;15126;42.186;24.340;2024-03-08T11:56:07;12.02;;;7.65;;
27728;SDS011;15126;42.186;24.340;2024-03-08T11:58:33;18.55;;;10.65;;
27728;SDS011;15126;42.186;24.340;2024-03-08T12:01:04;16.38;;;9.35;;
27728;SDS011;15126;42.186;24.340;2024-03-08T12:03:31;10.73;;;6.15;;
27728;SDS011;15126;42.186;24.340;2024-03-08T12:05:59;12.45;;;6.95;;
27728;SDS011;15126;42.186;24.340;2024-03-08T12:08:30;16.27;;;7.25;;
27728;SDS011;15126;42.186;24.340;2024-03-08T12:10:56;16.13;;;8.82;;
27728;SDS011;15126;42.186;24.340;2024-03-08T12:13:28;13.00;;;8.18;;
27728;SDS011;15126;42.186;24.340;2024-03-08T12:16:03;13.30;;;6.82;;
27728;SDS011;15126;42.186;24.340;2024-03-08T12:18:32;12.95;;;7.75;;
27728;SDS011;15126;42.186;24.340;2024-03-08T12:21:10;16.25;;;7.18;;
27728;SDS011;15126;42.186;24.340;2024-03-08T12:23:37;17.90;;;8.88;;
27728;SDS011;15126;42.186;24.340;2024-03-08T12:29:24;12.23;;;6.50;;
27728;SDS011;15126;42.186;24.340;2024-03-08T12:31:52;12.40;;;6.68;;
27728;SDS011;15126;42.186;24.340;2024-03-08T12:34:21;13.30;;;7.47;;
27728;SDS011;15126;42.186;24.340;2024-03-08T12:36:47;13.02;;;6.45;;
27728;SDS011;15126;42.186;24.340;2024-03-08T12:39:17;13.60;;;7.55;;
27728;SDS011;15126;42.186;24.340;2024-03-08T12:41:47;15.35;;;8.32;;
27728;SDS011;15126;42.186;24.340;2024-03-08T12:44:12;15.85;;;8.52;;
27728;SDS011;15126;42.186;24.340;2024-03-08T12:46:40;19.52;;;10.13;;
27728;SDS011;15126;42.186;24.340;2024-03-08T12:49:10;19.83;;;10.60;;
27728;SDS011;15126;42.186;24.340;2024-03-08T12:51:37;19.95;;;9.25;;
27728;SDS011;15126;42.186;24.340;2024-03-08T12:54:07;18.55;;;9.13;;
27728;SDS011;15126;42.186;24.340;2024-03-08T12:56:36;16.08;;;7.97;;
27728;SDS011;15126;42.186;24.340;2024-03-08T12:59:05;17.35;;;9.38;;
27728;SDS011;15126;42.186;24.340;2024-03-08T13:01:33;19.67;;;9.00;;
27728;SDS011;15126;42.186;24.340;2024-03-08T13:03:59;20.33;;;8.75;;
27728;SDS011;15126;42.186;24.340;2024-03-08T13:06:27;17.45;;;10.10;;
27728;SDS011;15126;42.186;24.340;2024-03-08T13:08:54;15.98;;;8.50;;
27728;SDS011;15126;42.186;24.340;2024-03-08T13:11:21;18.73;;;10.20;;
27728;SDS011;15126;42.186;24.340;2024-03-08T13:13:48;17.20;;;8.85;;
27728;SDS011;15126;42.186;24.340;2024-03-08T13:16:16;17.10;;;9.20;;
27728;SDS011;15126;42.186;24.340;2024-03-08T13:18:43;19.55;;;9.75;;
27728;SDS011;15126;42.186;24.340;2024-03-08T13:26:05;13.90;;;8.50;;
27728;SDS011;15126;42.186;24.340;2024-03-08T13:28:34;13.80;;;7.75;;
27728;SDS011;15126;42.186;24.340;2024-03-08T13:31:10;16.45;;;8.55;;
27728;SDS011;15126;42.186;24.340;2024-03-08T13:36:07;15.00;;;6.47;;
27728;SDS011;15126;42.186;24.340;2024-03-08T13:38:42;11.98;;;6.75;;
27728;SDS011;15126;42.186;24.340;2024-03-08T13:41:13;13.25;;;7.28;;
27728;SDS011;15126;42.186;24.340;2024-03-08T13:43:42;13.75;;;7.30;;
27728;SDS011;15126;42.186;24.340;2024-03-08T13:46:11;12.23;;;6.95;;
27728;SDS011;15126;42.186;24.340;2024-03-08T13:48:39;14.25;;;6.88;;
27728;SDS011;15126;42.186;24.340;2024-03-08T13:51:08;14.90;;;7.25;;
27728;SDS011;15126;42.186;24.340;2024-03-08T13:53:38;12.85;;;6.72;;
27728;SDS011;15126;42.186;24.340;2024-03-08T13:56:05;10.80;;;6.80;;
27728;SDS011;15126;42.186;24.340;2024-03-08T14:00:56;28.27;;;12.20;;
27728;SDS011;15126;42.186;24.340;2024-03-08T14:05:48;16.85;;;9.60;;
27728;SDS011;15126;42.186;24.340;2024-03-08T14:10:41;16.80;;;8.80;;
27728;SDS011;15126;42.186;24.340;2024-03-08T14:15:34;17.30;;;8.95;;
27728;SDS011;15126;42.186;24.340;2024-03-08T14:18:00;18.02;;;9.52;;
27728;SDS011;15126;42.186;24.340;2024-03-08T14:20:26;16.02;;;9.30;;
27728;SDS011;15126;42.186;24.340;2024-03-08T14:22:58;17.98;;;9.90;;
27728;SDS011;15126;42.186;24.340;2024-03-08T14:25:23;19.73;;;10.88;;
27728;SDS011;15126;42.186;24.340;2024-03-08T14:27:51;24.05;;;14.15;;
27728;SDS011;15126;42.186;24.340;2024-03-08T14:30:23;60.63;;;34.78;;
27728;SDS011;15126;42.186;24.340;2024-03-08T14:33:02;15.98;;;9.68;;
27728;SDS011;15126;42.186;24.340;2024-03-08T14:37:55;22.08;;;9.35;;
27728;SDS011;15126;42.186;24.340;2024-03-08T14:40:22;20.73;;;10.10;;
27728;SDS011;15126;42.186;24.340;2024-03-08T14:42:49;18.75;;;9.95;;
27728;SDS011;15126;42.186;24.340;2024-03-08T14:47:40;14.45;;;9.48;;
27728;SDS011;15126;42.186;24.340;2024-03-08T14:50:06;22.98;;;10.43;;
27728;SDS011;15126;42.186;24.340;2024-03-08T14:54:57;20.98;;;10.00;;
27728;SDS011;15126;42.186;24.340;2024-03-08T14:59:48;30.60;;;13.50;;
27728;SDS011;15126;42.186;24.340;2024-03-08T15:04:39;23.85;;;11.68;;
27728;SDS011;15126;42.186;24.340;2024-03-08T15:07:08;21.95;;;9.27;;
27728;SDS011;15126;42.186;24.340;2024-03-08T15:09:36;17.83;;;9.95;;
27728;SDS011;15126;42.186;24.340;2024-03-08T15:12:08;24.33;;;11.80;;
27728;SDS011;15126;42.186;24.340;2024-03-08T15:14:41;46.88;;;16.40;;
27728;SDS011;15126;42.186;24.340;2024-03-08T15:17:09;23.15;;;11.40;;
27728;SDS011;15126;42.186;24.340;2024-03-08T15:19:45;33.50;;;16.15;;
27728;SDS011;15126;42.186;24.340;2024-03-08T15:22:13;32.75;;;14.20;;
27728;SDS011;15126;42.186;24.340;2024-03-08T15:27:04;18.00;;;9.23;;
27728;SDS011;15126;42.186;24.340;2024-03-08T15:29:30;41.20;;;14.85;;
27728;SDS011;15126;42.186;24.340;2024-03-08T15:31:57;44.65;;;18.00;;
27728;SDS011;15126;42.186;24.340;2024-03-08T15:34:25;106.57;;;34.13;;